createdAt,value
2023-01-04T00:01:23.668Z,3.27
2023-01-04T00:03:51.673Z,3.80
2023-01-04T00:06:19.803Z,3.43
2023-01-04T00:08:47.980Z,4.50
2023-01-04T00:11:22.410Z,2.90
2023-01-04T00:13:53.330Z,2.53
2023-01-04T00:16:23.510Z,2.77
2023-01-04T00:18:54.075Z,3.37
2023-01-04T00:21:30.613Z,3.30
2023-01-04T00:24:01.215Z,3.07
2023-01-04T00:26:34.414Z,3.20
2023-01-04T00:29:07.600Z,3.57
2023-01-04T00:31:35.671Z,3.77
2023-01-04T00:34:05.950Z,2.90
2023-01-04T00:36:34.516Z,4.57
2023-01-04T00:39:10.208Z,3.47
2023-01-04T00:42:00.041Z,2.17
2023-01-04T00:44:29.562Z,3.60
2023-01-04T00:46:57.318Z,4.50
2023-01-04T00:49:24.812Z,3.23
2023-01-04T00:51:51.998Z,4.00
2023-01-04T00:54:19.683Z,4.90
2023-01-04T00:56:46.769Z,3.13
2023-01-04T00:59:17.131Z,2.57
2023-01-04T01:01:45.451Z,3.10
2023-01-04T01:04:15.718Z,3.90
2023-01-04T01:06:43.207Z,4.77
2023-01-04T01:09:10.652Z,3.30
2023-01-04T01:11:39.713Z,2.87
2023-01-04T01:14:12.008Z,3.80
2023-01-04T01:16:54.503Z,3.00
2023-01-04T01:19:24.119Z,3.57
2023-01-04T01:21:51.215Z,4.13
2023-01-04T01:24:20.494Z,3.43
2023-01-04T01:26:47.938Z,4.90
2023-01-04T01:29:15.204Z,5.57
2023-01-04T01:31:42.664Z,3.47
2023-01-04T01:34:10.125Z,3.30
2023-01-04T01:36:37.739Z,3.53
2023-01-04T01:39:06.828Z,4.43
2023-01-04T01:41:35.749Z,5.37
2023-01-04T01:44:46.480Z,2.67
2023-01-04T01:47:26.627Z,3.73
2023-01-04T01:49:55.295Z,5.93
2023-01-04T01:52:30.604Z,3.30
2023-01-04T01:55:02.606Z,3.40
2023-01-04T01:57:34.704Z,4.40
2023-01-04T02:00:09.546Z,3.70
2023-01-04T02:03:11.163Z,3.23
2023-01-04T02:05:39.357Z,3.73
2023-01-04T02:08:08.382Z,4.50
2023-01-04T02:10:35.578Z,4.57
2023-01-04T02:13:11.712Z,4.17
2023-01-04T02:16:17.694Z,4.07
2023-01-04T02:18:58.231Z,4.13
2023-01-04T02:22:22.214Z,3.67
2023-01-04T02:25:59.455Z,2.90
2023-01-04T02:28:53.627Z,3.97
2023-01-04T02:31:44.908Z,3.53
2023-01-04T02:34:58.595Z,4.63
2023-01-04T02:37:58.631Z,2.93
2023-01-04T02:41:05.453Z,4.00
2023-01-04T02:44:07.129Z,3.40
2023-01-04T02:46:43.584Z,2.73
2023-01-04T02:49:29.564Z,2.47
2023-01-04T02:51:56.699Z,1.63
2023-01-04T02:54:30.882Z,3.07
2023-01-04T02:57:55.129Z,3.23
2023-01-04T03:00:59.376Z,2.57
2023-01-04T03:04:07.402Z,1.40
2023-01-04T03:06:51.516Z,3.10
2023-01-04T03:09:28.629Z,2.73
2023-01-04T03:12:31.544Z,3.00
2023-01-04T03:15:05.672Z,2.80
2023-01-04T03:17:45.345Z,2.13
2023-01-04T03:20:16.248Z,1.87
2023-01-04T03:23:18.860Z,2.47
2023-01-04T03:26:21.504Z,2.90
2023-01-04T03:29:08.820Z,1.80
2023-01-04T03:32:07.903Z,1.63
2023-01-04T03:34:53.828Z,2.80
2023-01-04T03:38:15.013Z,3.90
2023-01-04T03:41:16.320Z,3.30
2023-01-04T03:44:13.132Z,3.60
2023-01-04T03:47:12.219Z,2.60
2023-01-04T03:50:02.688Z,3.53
2023-01-04T03:52:32.063Z,4.10
2023-01-04T03:55:01.705Z,4.77
2023-01-04T03:57:30.052Z,3.97
2023-01-04T04:00:09.816Z,3.90
2023-01-04T04:02:37.694Z,4.20
2023-01-04T04:05:24.089Z,5.67
2023-01-04T04:08:10.070Z,5.83
2023-01-04T04:10:37.292Z,5.83
2023-01-04T04:13:04.491Z,4.40
2023-01-04T04:15:31.663Z,5.57
2023-01-04T04:17:58.714Z,5.67
2023-01-04T04:20:25.827Z,5.30
2023-01-04T04:22:53.632Z,4.80
2023-01-04T04:25:20.791Z,5.70
2023-01-04T04:27:47.889Z,5.87
2023-01-04T04:30:15.048Z,3.90
2023-01-04T04:32:42.708Z,5.43
2023-01-04T04:35:10.202Z,3.70
2023-01-04T04:37:37.387Z,5.60
2023-01-04T04:40:06.267Z,5.43
2023-01-04T04:42:33.522Z,6.13
2023-01-04T04:45:00.594Z,5.50
2023-01-04T04:47:27.717Z,6.27
2023-01-04T04:49:54.783Z,4.50
2023-01-04T04:52:21.875Z,4.43
2023-01-04T04:54:48.963Z,5.13
2023-01-04T04:57:16.059Z,5.97
2023-01-04T04:59:43.131Z,6.00
2023-01-04T05:02:10.421Z,3.77
2023-01-04T05:04:37.568Z,7.27
2023-01-04T05:07:10.650Z,6.33
2023-01-04T05:09:39.424Z,6.13
2023-01-04T05:12:25.365Z,6.03
2023-01-04T05:14:52.438Z,4.67
2023-01-04T05:17:19.506Z,6.50
2023-01-04T05:19:46.561Z,5.77
2023-01-04T05:22:13.641Z,7.47
2023-01-04T05:24:40.749Z,4.60
2023-01-04T05:27:07.831Z,4.23
2023-01-04T05:29:53.248Z,5.83
2023-01-04T05:32:20.347Z,5.37
2023-01-04T05:34:47.404Z,6.83
2023-01-04T05:37:14.483Z,7.80
2023-01-04T05:39:41.603Z,5.03
2023-01-04T05:42:28.418Z,7.20
2023-01-04T05:44:57.663Z,6.13
2023-01-04T05:47:25.517Z,5.60
2023-01-04T05:49:53.344Z,3.10
2023-01-04T05:52:21.276Z,4.30
2023-01-04T05:54:48.641Z,4.77
2023-01-04T05:57:16.379Z,5.90
2023-01-04T05:59:43.642Z,4.83
2023-01-04T06:02:23.533Z,4.53
2023-01-04T06:04:58.175Z,5.13
2023-01-04T06:07:26.545Z,3.90
2023-01-04T06:09:54.115Z,5.57
2023-01-04T06:12:21.277Z,5.33
2023-01-04T06:14:48.445Z,5.70
2023-01-04T06:17:15.708Z,4.33
2023-01-04T06:19:42.906Z,5.47
2023-01-04T06:22:10.463Z,5.20
2023-01-04T06:24:37.662Z,4.10
2023-01-04T06:27:05.000Z,6.23
2023-01-04T06:29:32.114Z,6.97
2023-01-04T06:31:59.251Z,3.63
2023-01-04T06:34:31.240Z,6.43
2023-01-04T06:36:59.199Z,4.33
2023-01-04T06:39:26.524Z,6.20
2023-01-04T06:41:53.675Z,4.37
2023-01-04T06:44:21.092Z,4.40
2023-01-04T06:46:48.237Z,5.10
2023-01-04T06:49:15.339Z,3.70
2023-01-04T06:51:42.434Z,3.77
2023-01-04T06:54:11.899Z,5.97
2023-01-04T06:56:40.610Z,4.40
2023-01-04T06:59:09.643Z,4.70
2023-01-04T07:01:36.889Z,4.90
2023-01-04T07:04:04.286Z,3.23
2023-01-04T07:06:31.368Z,4.80
2023-01-04T07:08:58.499Z,5.40
2023-01-04T07:11:25.618Z,4.10
2023-01-04T07:13:52.955Z,3.03
2023-01-04T07:16:20.809Z,3.13
2023-01-04T07:18:47.964Z,3.87
2023-01-04T07:21:15.065Z,3.90
2023-01-04T07:23:42.239Z,3.50
2023-01-04T07:26:09.353Z,3.10
2023-01-04T07:28:54.724Z,3.10
2023-01-04T07:31:21.959Z,3.10
2023-01-04T07:33:52.130Z,3.63
2023-01-04T07:36:19.282Z,3.83
2023-01-04T07:38:46.371Z,2.40
2023-01-04T07:41:13.413Z,4.27
2023-01-04T07:43:40.523Z,3.10
2023-01-04T07:46:07.649Z,4.30
2023-01-04T07:48:34.848Z,2.43
2023-01-04T07:51:02.015Z,3.50
2023-01-04T07:53:29.123Z,3.90
2023-01-04T07:55:59.868Z,3.50
2023-01-04T07:58:33.171Z,3.80
2023-01-04T08:01:13.314Z,3.63
2023-01-04T08:03:41.098Z,2.57
2023-01-04T08:06:13.064Z,4.43
2023-01-04T08:08:40.880Z,3.17
2023-01-04T08:11:16.154Z,2.80
2023-01-04T08:13:43.961Z,3.20
2023-01-04T08:16:27.739Z,3.40
2023-01-04T08:18:56.899Z,2.53
2023-01-04T08:21:25.223Z,3.23
2023-01-04T08:23:53.712Z,2.90
2023-01-04T08:26:21.791Z,3.57
2023-01-04T08:28:50.801Z,2.70
2023-01-04T08:31:22.419Z,2.33
2023-01-04T08:33:51.415Z,2.53
2023-01-04T08:36:29.913Z,3.17
2023-01-04T08:39:04.930Z,2.20
2023-01-04T08:44:38.213Z,2.73
2023-01-04T08:47:05.590Z,2.70
2023-01-04T08:49:32.851Z,2.17
2023-01-04T08:52:00.149Z,1.53
2023-01-04T08:54:27.270Z,2.63
2023-01-04T08:56:54.388Z,3.20
2023-01-04T08:59:21.521Z,3.23
2023-01-04T09:01:48.716Z,3.30
2023-01-04T09:04:15.931Z,2.30
2023-01-04T09:06:43.092Z,2.50
2023-01-04T09:09:10.343Z,2.70
2023-01-04T09:11:39.085Z,2.77
2023-01-04T09:14:09.339Z,1.93
2023-01-04T09:16:40.392Z,2.40
2023-01-04T09:19:08.201Z,3.40
2023-01-04T09:21:35.772Z,4.37
2023-01-04T09:24:03.160Z,1.80
2023-01-04T09:26:30.493Z,2.43
2023-01-04T09:28:58.122Z,2.20
2023-01-04T09:31:28.563Z,2.60
2023-01-04T09:34:14.032Z,4.07
2023-01-04T09:36:42.198Z,1.90
2023-01-04T09:39:15.001Z,1.83
2023-01-04T09:42:05.284Z,1.87
2023-01-04T09:45:25.638Z,2.40
2023-01-04T09:48:03.553Z,2.47
2023-01-04T09:50:50.748Z,2.73
2023-01-04T09:53:44.693Z,2.00
2023-01-04T09:56:33.013Z,2.30
2023-01-04T09:59:08.224Z,2.40
2023-01-04T10:02:03.414Z,1.40
2023-01-04T10:04:47.604Z,3.30
2023-01-04T10:07:29.404Z,2.60
2023-01-04T10:09:58.213Z,2.50
2023-01-04T10:12:43.318Z,1.80
2023-01-04T10:15:49.303Z,1.27
2023-01-04T10:21:53.721Z,2.47
2023-01-04T10:24:38.524Z,2.17
2023-01-04T10:27:42.678Z,1.20
2023-01-04T10:30:29.754Z,1.10
2023-01-04T10:33:29.110Z,2.30
2023-01-04T10:35:57.386Z,1.93
2023-01-04T10:38:30.528Z,1.50
2023-01-04T10:41:01.689Z,2.57
2023-01-04T10:43:31.490Z,2.60
2023-01-04T10:46:29.659Z,1.60
2023-01-04T10:49:07.733Z,1.10
2023-01-04T10:51:44.270Z,1.33
2023-01-04T10:54:53.228Z,1.93
2023-01-04T10:57:40.620Z,1.93
2023-01-04T11:00:19.217Z,1.73
2023-01-04T11:03:19.575Z,1.87
2023-01-04T11:05:53.260Z,1.90
2023-01-04T11:08:24.464Z,1.50
2023-01-04T11:11:18.459Z,2.00
2023-01-04T11:13:45.630Z,2.10
2023-01-04T11:16:12.897Z,2.10
2023-01-04T11:18:44.158Z,2.03
2023-01-04T11:21:15.030Z,1.43
2023-01-04T11:23:42.076Z,1.80
2023-01-04T11:26:29.322Z,1.20
2023-01-04T11:29:06.584Z,1.30
2023-01-04T11:31:48.814Z,1.60
2023-01-04T11:34:16.039Z,2.13
2023-01-04T11:36:47.788Z,0.90
2023-01-04T11:39:23.030Z,1.30
2023-01-04T11:42:04.675Z,1.90
2023-01-04T11:44:35.015Z,1.53
2023-01-04T11:47:20.952Z,1.70
2023-01-04T11:49:48.699Z,1.80
2023-01-04T11:52:37.127Z,1.40
2023-01-04T11:55:16.925Z,0.80
2023-01-04T11:57:44.059Z,1.33
2023-01-04T12:00:15.997Z,1.07
2023-01-04T12:03:00.928Z,0.70
2023-01-04T12:05:32.371Z,0.97
2023-01-04T12:07:59.760Z,1.60
2023-01-04T12:10:28.899Z,1.17
2023-01-04T12:13:00.495Z,0.93
2023-01-04T12:15:56.864Z,0.80
2023-01-04T12:18:29.806Z,1.10
2023-01-04T12:20:57.819Z,1.10
2023-01-04T12:23:25.060Z,1.27
2023-01-04T12:25:54.411Z,1.00
2023-01-04T12:28:42.045Z,0.90
2023-01-04T12:31:22.138Z,0.80
2023-01-04T12:34:20.438Z,0.97
2023-01-04T12:37:46.045Z,1.20
2023-01-04T12:40:47.220Z,1.30
2023-01-04T12:43:22.979Z,1.30
2023-01-04T12:46:48.629Z,1.23
2023-01-04T12:49:28.073Z,1.30
2023-01-04T12:55:03.022Z,0.90
2023-01-04T12:57:38.065Z,1.33
2023-01-04T13:00:14.628Z,1.30
2023-01-04T13:02:51.212Z,1.60
2023-01-04T13:05:54.782Z,1.00
2023-01-04T13:08:15.165Z,1.87
2023-01-04T13:10:51.604Z,1.53
2023-01-04T13:13:46.456Z,0.73
2023-01-04T13:16:50.782Z,1.00
2023-01-04T13:19:28.752Z,2.30
2023-01-04T13:21:56.301Z,1.70
2023-01-04T13:24:32.186Z,1.60
2023-01-04T13:27:23.062Z,1.17
2023-01-04T13:29:52.353Z,1.43
2023-01-04T13:32:26.299Z,1.40
2023-01-04T13:35:00.617Z,1.40
2023-01-04T13:37:45.270Z,0.83
2023-01-04T13:40:31.587Z,1.20
2023-01-04T13:43:42.610Z,1.43
2023-01-04T13:46:23.165Z,2.40
2023-01-04T13:48:58.101Z,1.37
2023-01-04T13:51:38.079Z,2.03
2023-01-04T13:54:21.004Z,1.73
2023-01-04T13:56:55.216Z,1.20
2023-01-04T13:59:23.419Z,1.20
2023-01-04T14:01:51.398Z,1.10
2023-01-04T14:04:30.651Z,1.10
2023-01-04T14:07:01.685Z,1.80
2023-01-04T14:09:45.987Z,1.10
2023-01-04T14:12:26.622Z,1.00
2023-01-04T14:15:20.479Z,1.30
2023-01-04T14:17:55.727Z,1.37
2023-01-04T14:20:25.412Z,1.40
2023-01-04T14:22:58.677Z,1.70
2023-01-04T14:25:38.383Z,1.60
2023-01-04T14:28:30.395Z,1.30
2023-01-04T14:31:00.415Z,1.13
2023-01-04T14:33:36.766Z,0.80
2023-01-04T14:36:07.490Z,1.60
2023-01-04T14:38:43.884Z,0.87
2023-01-04T14:41:27.081Z,1.20
2023-01-04T14:44:14.072Z,1.30
2023-01-04T14:46:43.782Z,0.80
2023-01-04T14:49:10.978Z,1.07
2023-01-04T14:51:52.815Z,0.60
2023-01-04T14:54:24.931Z,0.77
2023-01-04T14:56:57.874Z,0.67
2023-01-04T14:59:26.772Z,0.50
2023-01-04T15:01:56.700Z,0.80
2023-01-04T15:04:24.730Z,0.93
2023-01-04T15:06:59.219Z,1.00
2023-01-04T15:09:28.498Z,0.97
2023-01-04T15:11:56.303Z,0.63
2023-01-04T15:14:23.850Z,0.80
2023-01-04T15:16:50.986Z,0.90
2023-01-04T15:19:18.131Z,1.93
2023-01-04T15:21:45.235Z,1.27
2023-01-04T15:24:12.391Z,0.70
2023-01-04T15:26:40.505Z,0.70
2023-01-04T15:29:08.749Z,1.17
2023-01-04T15:31:39.677Z,0.93
2023-01-04T15:34:10.331Z,1.20
2023-01-04T15:36:41.013Z,1.00
2023-01-04T15:39:12.506Z,0.60
2023-01-04T15:41:58.670Z,0.70
2023-01-04T15:44:25.984Z,0.83
2023-01-04T15:46:54.400Z,0.87
2023-01-04T15:49:21.591Z,0.60
2023-01-04T15:51:48.681Z,0.57
2023-01-04T15:54:17.267Z,0.50
2023-01-04T15:56:44.399Z,1.33
2023-01-04T15:59:13.490Z,1.10
2023-01-04T16:01:40.705Z,1.83
2023-01-04T16:04:07.943Z,1.67
2023-01-04T16:06:35.100Z,1.00
2023-01-04T16:09:02.221Z,0.53
2023-01-04T16:11:29.892Z,1.23
2023-01-04T16:13:57.566Z,1.20
2023-01-04T16:16:28.211Z,2.43
2023-01-04T16:18:57.504Z,1.43
2023-01-04T16:21:29.648Z,0.80
2023-01-04T16:24:06.859Z,0.60
2023-01-04T16:26:40.416Z,1.00
2023-01-04T16:29:07.550Z,2.10
2023-01-04T16:31:37.186Z,0.90
2023-01-04T16:34:05.583Z,0.53
2023-01-04T16:36:32.806Z,0.60
2023-01-04T16:39:01.651Z,0.80
2023-01-04T16:41:29.197Z,0.80
2023-01-04T16:44:01.006Z,0.80
2023-01-04T16:46:33.509Z,1.20
2023-01-04T16:49:05.483Z,0.80
2023-01-04T16:51:35.040Z,0.90
2023-01-04T16:54:05.218Z,1.03
2023-01-04T16:56:33.577Z,0.80
2023-01-04T16:59:02.278Z,1.17
2023-01-04T17:01:39.284Z,1.03
2023-01-04T17:04:13.606Z,0.43
2023-01-04T17:06:45.049Z,0.70
2023-01-04T17:09:20.015Z,0.60
2023-01-04T17:14:44.571Z,0.80
2023-01-04T17:17:11.643Z,0.60
2023-01-04T17:19:38.745Z,0.77
2023-01-04T17:22:05.894Z,0.70
2023-01-04T17:24:33.091Z,0.80
2023-01-04T17:27:00.250Z,1.40
2023-01-04T17:29:27.406Z,1.70
2023-01-04T17:31:54.576Z,0.80
2023-01-04T17:34:23.179Z,0.77
2023-01-04T17:36:50.778Z,0.53
2023-01-04T17:39:20.607Z,0.70
2023-01-04T17:41:47.724Z,0.80
2023-01-04T17:44:14.837Z,0.60
2023-01-04T17:46:41.968Z,0.70
2023-01-04T17:49:31.779Z,0.90
2023-01-04T17:52:00.081Z,0.50
2023-01-04T17:54:27.333Z,0.90
2023-01-04T17:56:54.598Z,0.50
2023-01-04T17:59:21.821Z,1.73
2023-01-04T18:01:49.204Z,0.47
2023-01-04T18:04:16.479Z,1.47
2023-01-04T18:06:43.632Z,0.90
2023-01-04T18:09:15.394Z,0.40
2023-01-04T18:11:45.580Z,0.47
2023-01-04T18:14:14.585Z,0.40
2023-01-04T18:16:58.225Z,0.50
2023-01-04T18:19:29.871Z,0.80
2023-01-04T18:21:57.578Z,0.50
2023-01-04T18:24:41.727Z,0.50
2023-01-04T18:27:21.976Z,0.80
2023-01-04T18:29:52.388Z,0.70
2023-01-04T18:32:20.859Z,1.13
2023-01-04T18:34:48.119Z,0.60
2023-01-04T18:37:16.137Z,0.97
2023-01-04T18:39:43.529Z,0.77
2023-01-04T18:42:10.661Z,0.70
2023-01-04T18:44:43.815Z,0.40
2023-01-04T18:47:13.091Z,0.53
2023-01-04T18:49:40.190Z,0.57
2023-01-04T18:52:07.287Z,0.70
2023-01-04T18:54:34.395Z,0.80
2023-01-04T18:57:01.878Z,0.80
2023-01-04T18:59:30.456Z,0.50
2023-01-04T19:02:02.439Z,0.80
2023-01-04T19:04:33.421Z,0.93
2023-01-04T19:07:01.479Z,0.90
2023-01-04T19:09:28.777Z,0.83
2023-01-04T19:11:55.934Z,0.70
2023-01-04T19:14:23.063Z,0.63
2023-01-04T19:16:50.194Z,0.60
2023-01-04T19:19:17.314Z,0.50
2023-01-04T19:21:44.912Z,0.90
2023-01-04T19:24:12.425Z,0.60
2023-01-04T19:26:39.684Z,0.60
2023-01-04T19:29:09.938Z,0.50
2023-01-04T19:31:37.335Z,1.00
2023-01-04T19:34:04.629Z,0.63
2023-01-04T19:36:31.725Z,0.50
2023-01-04T19:38:59.018Z,0.43
2023-01-04T19:41:33.927Z,0.60
2023-01-04T19:44:07.712Z,0.60
2023-01-04T19:46:38.579Z,0.40
2023-01-04T19:49:14.141Z,0.63
2023-01-04T19:51:44.420Z,0.70
2023-01-04T19:54:12.484Z,0.40
2023-01-04T19:56:39.987Z,0.40
2023-01-04T19:59:07.149Z,0.80
2023-01-04T20:01:34.329Z,0.80
2023-01-04T20:04:01.530Z,0.70
2023-01-04T20:06:28.682Z,0.50
2023-01-04T20:08:55.806Z,0.97
2023-01-04T20:11:22.905Z,0.60
2023-01-04T20:13:49.939Z,0.80
2023-01-04T20:16:17.116Z,0.43
2023-01-04T20:18:44.374Z,0.60
2023-01-04T20:21:14.140Z,0.50
2023-01-04T20:23:41.717Z,0.60
2023-01-04T20:26:15.935Z,0.60
2023-01-04T20:28:45.954Z,0.60
2023-01-04T20:31:16.523Z,0.37
2023-01-04T20:33:44.127Z,0.43
2023-01-04T20:36:21.734Z,0.50
2023-01-04T20:38:50.057Z,0.50
2023-01-04T20:41:23.564Z,0.87
2023-01-04T20:43:52.442Z,0.63
2023-01-04T20:46:24.253Z,0.50
2023-01-04T20:48:51.543Z,0.50
2023-01-04T20:51:26.034Z,0.53
2023-01-04T20:53:53.901Z,0.43
2023-01-04T20:56:25.632Z,0.80
2023-01-04T20:58:53.569Z,1.00
2023-01-04T21:01:22.083Z,0.63
2023-01-04T21:03:49.762Z,0.83
2023-01-04T21:06:23.211Z,0.57
2023-01-04T21:08:52.454Z,0.47
2023-01-04T21:11:19.653Z,0.50
2023-01-04T21:13:47.403Z,0.57
2023-01-04T21:16:15.124Z,0.53
2023-01-04T21:18:43.418Z,0.43
2023-01-04T21:21:16.952Z,0.60
2023-01-04T21:23:45.264Z,0.50
2023-01-04T21:26:19.629Z,0.50
2023-01-04T21:28:47.701Z,0.63
2023-01-04T21:31:23.871Z,0.50
2023-01-04T21:33:53.303Z,0.40
2023-01-04T21:36:26.321Z,0.43
2023-01-04T21:38:56.645Z,0.73
2023-01-04T21:41:25.455Z,0.70
2023-01-04T21:43:56.523Z,0.40
2023-01-04T21:46:25.592Z,0.43
2023-01-04T21:49:01.455Z,0.60
2023-01-04T21:51:29.914Z,1.27
2023-01-04T21:53:58.313Z,0.70
2023-01-04T21:56:25.718Z,0.60
2023-01-04T21:58:53.126Z,0.87
2023-01-04T22:01:26.398Z,1.03
2023-01-04T22:03:57.365Z,0.53
2023-01-04T22:06:25.802Z,1.07
2023-01-04T22:08:53.138Z,0.47
2023-01-04T22:11:20.634Z,0.50
2023-01-04T22:13:49.627Z,0.83
2023-01-04T22:16:18.021Z,0.40
2023-01-04T22:18:51.933Z,0.53
2023-01-04T22:21:23.710Z,0.70
2023-01-04T22:23:51.521Z,0.67
2023-01-04T22:26:18.681Z,0.90
2023-01-04T22:28:46.520Z,0.70
2023-01-04T22:31:14.564Z,1.00
2023-01-04T22:33:42.645Z,0.90
2023-01-04T22:36:21.703Z,1.00
2023-01-04T22:38:55.266Z,0.57
2023-01-04T22:41:27.032Z,1.27
2023-01-04T22:44:03.505Z,0.80
2023-01-04T22:46:33.436Z,0.67
2023-01-04T22:49:01.550Z,0.43
2023-01-04T22:51:30.654Z,0.93
2023-01-04T22:54:01.574Z,0.50
2023-01-04T22:56:29.739Z,1.80
2023-01-04T22:58:58.702Z,2.17
2023-01-04T23:01:32.336Z,0.80
2023-01-04T23:04:00.904Z,0.40
2023-01-04T23:06:30.380Z,1.77
2023-01-04T23:09:07.951Z,0.80
2023-01-04T23:11:37.312Z,1.43
2023-01-04T23:14:07.315Z,0.70
2023-01-04T23:16:34.693Z,0.73
2023-01-04T23:19:02.659Z,0.60
2023-01-04T23:21:31.489Z,0.60
2023-01-04T23:23:59.005Z,0.47
2023-01-04T23:26:29.051Z,1.33
2023-01-04T23:28:57.122Z,0.53
2023-01-04T23:31:27.850Z,1.10
2023-01-04T23:33:59.196Z,0.60
2023-01-04T23:36:39.428Z,0.70
2023-01-04T23:39:13.360Z,0.67
2023-01-04T23:41:47.014Z,0.70
2023-01-04T23:44:25.644Z,0.60
2023-01-04T23:46:58.958Z,0.50
2023-01-04T23:49:29.349Z,0.97
2023-01-04T23:51:57.128Z,0.43
2023-01-04T23:54:24.685Z,0.43
2023-01-04T23:56:52.379Z,0.73
2023-01-04T23:59:21.418Z,0.53
